createdAt,value
2022-12-19T00:04:23.709Z,99.90
2022-12-19T00:06:51.145Z,99.90
2022-12-19T00:09:18.073Z,99.90
2022-12-19T00:21:37.808Z,99.90
2022-12-19T00:24:12.407Z,99.90
2022-12-19T00:29:16.313Z,99.90
2022-12-19T00:31:43.676Z,99.90
2022-12-19T00:36:38.268Z,99.90
2022-12-19T00:39:08.449Z,99.90
2022-12-19T00:41:41.674Z,99.90
2022-12-19T00:44:14.332Z,99.90
2022-12-19T00:49:09.229Z,99.90
2022-12-19T00:51:37.684Z,99.90
2022-12-19T00:54:07.386Z,99.90
2022-12-19T00:56:37.697Z,99.90
2022-12-19T00:59:05.716Z,99.90
2022-12-19T01:01:36.175Z,99.90
2022-12-19T01:06:53.619Z,99.90
2022-12-19T01:09:22.720Z,99.90
2022-12-19T01:14:36.234Z,99.90
2022-12-19T01:17:03.158Z,99.90
2022-12-19T01:21:57.330Z,99.90
2022-12-19T01:24:24.788Z,99.90
2022-12-19T01:26:51.936Z,99.90
2022-12-19T01:29:18.915Z,99.90
2022-12-19T01:31:45.769Z,99.90
2022-12-19T01:39:08.376Z,99.90
2022-12-19T01:44:08.755Z,99.90
2022-12-19T01:46:50.671Z,99.90
2022-12-19T01:49:35.881Z,99.90
2022-12-19T01:52:10.356Z,99.90
2022-12-19T01:57:14.169Z,99.90
2022-12-19T01:59:55.978Z,99.90
2022-12-19T02:02:37.508Z,99.90
2022-12-19T02:05:05.859Z,99.90
2022-12-19T02:07:34.382Z,99.90
2022-12-19T02:12:34.759Z,99.90
2022-12-19T02:15:03.761Z,99.90
2022-12-19T02:17:52.865Z,99.90
2022-12-19T02:20:30.139Z,99.90
2022-12-19T02:23:45.460Z,99.90
2022-12-19T02:26:42.972Z,99.90
2022-12-19T02:29:53.005Z,99.90
2022-12-19T02:32:50.770Z,99.90
2022-12-19T02:35:33.361Z,99.90
2022-12-19T02:38:21.259Z,99.90
2022-12-19T02:41:18.843Z,99.90
2022-12-19T02:43:50.769Z,99.90
2022-12-19T02:48:53.833Z,99.90
2022-12-19T02:51:20.717Z,99.90
2022-12-19T02:53:47.900Z,99.90
2022-12-19T02:59:11.785Z,99.90
2022-12-19T03:04:39.391Z,99.90
2022-12-19T03:07:38.436Z,99.90
2022-12-19T03:10:45.948Z,99.90
2022-12-19T03:13:23.383Z,99.90
2022-12-19T03:15:50.704Z,99.90
2022-12-19T03:18:18.315Z,99.90
2022-12-19T03:21:11.025Z,99.90
2022-12-19T03:23:39.588Z,99.90
2022-12-19T03:26:22.602Z,99.90
2022-12-19T03:29:08.844Z,99.90
2022-12-19T03:31:38.104Z,99.90
2022-12-19T03:34:27.955Z,99.90
2022-12-19T03:37:01.853Z,99.90
2022-12-19T03:39:31.399Z,99.90
2022-12-19T03:42:19.943Z,99.90
2022-12-19T03:47:31.379Z,99.90
2022-12-19T03:49:58.301Z,99.90
2022-12-19T03:53:16.664Z,99.90
2022-12-19T03:55:53.639Z,99.90
2022-12-19T03:58:31.569Z,99.90
2022-12-19T04:01:00.877Z,99.90
2022-12-19T04:03:30.562Z,99.90
2022-12-19T04:06:00.545Z,99.90
2022-12-19T04:08:30.149Z,99.90
2022-12-19T04:11:14.166Z,99.90
2022-12-19T04:13:51.994Z,99.90
2022-12-19T04:16:44.804Z,99.90
2022-12-19T04:19:25.555Z,99.90
2022-12-19T04:22:00.439Z,99.90
2022-12-19T04:24:34.573Z,99.90
2022-12-19T04:27:04.083Z,99.90
2022-12-19T04:29:35.758Z,99.90
2022-12-19T04:32:05.315Z,99.90
2022-12-19T04:34:32.763Z,99.90
2022-12-19T04:37:03.513Z,99.90
2022-12-19T04:39:30.568Z,99.90
2022-12-19T04:41:57.543Z,99.90
2022-12-19T04:44:24.757Z,99.90
2022-12-19T04:49:19.191Z,99.90
2022-12-19T04:54:13.438Z,99.90
2022-12-19T05:01:35.317Z,99.90
2022-12-19T05:04:04.703Z,99.90
2022-12-19T05:08:59.740Z,99.90
2022-12-19T05:11:26.629Z,99.90
2022-12-19T05:13:53.550Z,99.90
2022-12-19T05:16:20.524Z,99.90
2022-12-19T05:18:47.490Z,99.90
2022-12-19T05:21:14.637Z,99.90
2022-12-19T05:31:12.909Z,99.90
2022-12-19T05:33:41.707Z,99.90
2022-12-19T05:38:37.396Z,99.90
2022-12-19T05:41:13.946Z,99.90
2022-12-19T05:43:41.239Z,99.90
2022-12-19T05:46:08.688Z,99.90
2022-12-19T05:48:36.619Z,99.90
2022-12-19T05:56:16.615Z,99.90
2022-12-19T05:58:45.171Z,99.90
2022-12-19T06:01:27.629Z,99.90
2022-12-19T06:03:55.855Z,99.90
2022-12-19T06:06:26.150Z,99.90
2022-12-19T06:08:58.326Z,99.90
2022-12-19T06:13:53.683Z,99.90
2022-12-19T06:16:22.414Z,99.90
2022-12-19T06:21:20.593Z,99.90
2022-12-19T06:26:20.164Z,99.90
2022-12-19T06:28:52.458Z,99.90
2022-12-19T06:31:21.639Z,99.90
2022-12-19T06:36:25.654Z,99.90
2022-12-19T06:38:55.091Z,99.90
2022-12-19T06:41:40.352Z,99.90
2022-12-19T06:44:12.657Z,99.90
2022-12-19T06:49:09.008Z,99.90
2022-12-19T06:54:03.998Z,99.90
2022-12-19T06:56:36.835Z,99.90
2022-12-19T06:59:04.653Z,99.90
2022-12-19T07:01:59.423Z,99.90
2022-12-19T07:04:34.674Z,99.90
2022-12-19T07:11:57.063Z,99.90
2022-12-19T07:14:24.351Z,99.90
2022-12-19T07:16:53.047Z,99.90
2022-12-19T07:19:21.428Z,99.90
2022-12-19T07:24:16.369Z,99.90
2022-12-19T07:26:44.651Z,99.90
2022-12-19T07:29:12.798Z,99.90
2022-12-19T07:36:35.153Z,99.90
2022-12-19T07:39:02.133Z,99.90
2022-12-19T07:48:51.066Z,99.90
2022-12-19T08:06:06.459Z,99.90
2022-12-19T08:11:17.446Z,99.90
2022-12-19T08:13:46.905Z,99.90
2022-12-19T08:16:14.982Z,99.90
2022-12-19T08:21:10.697Z,99.90
2022-12-19T08:23:41.184Z,99.90
2022-12-19T08:26:12.727Z,99.90
2022-12-19T08:31:11.396Z,99.90
2022-12-19T08:33:38.682Z,99.90
2022-12-19T08:36:18.707Z,99.90
2022-12-19T08:38:46.333Z,99.90
2022-12-19T08:41:15.112Z,99.90
2022-12-19T08:43:42.720Z,99.90
2022-12-19T08:46:10.029Z,99.90
2022-12-19T08:48:37.225Z,99.90
2022-12-19T08:51:07.882Z,99.90
2022-12-19T08:53:38.552Z,99.90
2022-12-19T08:56:23.710Z,99.90
2022-12-19T08:58:53.652Z,99.90
2022-12-19T09:01:23.903Z,99.90
2022-12-19T09:11:34.620Z,99.20
2022-12-19T09:14:07.491Z,99.20
2022-12-19T09:19:01.764Z,99.30
2022-12-19T09:21:30.063Z,99.30
2022-12-19T09:24:07.054Z,99.30
2022-12-19T09:29:03.725Z,99.40
2022-12-19T09:34:05.743Z,99.40
2022-12-19T09:36:32.745Z,99.40
2022-12-19T09:38:59.672Z,99.50
2022-12-19T09:41:57.630Z,99.50
2022-12-19T09:47:20.045Z,99.90
2022-12-19T09:49:48.493Z,99.60
2022-12-19T09:52:30.235Z,99.30
2022-12-19T09:55:24.223Z,99.10
2022-12-19T09:58:32.587Z,98.90
2022-12-19T10:01:07.443Z,98.80
2022-12-19T10:03:43.820Z,98.90
2022-12-19T10:07:10.429Z,99.20
2022-12-19T10:10:47.473Z,99.30
2022-12-19T10:12:58.616Z,99.00
2022-12-19T10:15:58.736Z,99.10
2022-12-19T10:18:48.441Z,99.00
2022-12-19T10:24:41.004Z,99.20
2022-12-19T10:27:35.416Z,99.30
2022-12-19T10:30:21.079Z,99.60
2022-12-19T10:33:20.136Z,99.80
2022-12-19T10:36:02.312Z,99.90
2022-12-19T10:38:32.517Z,99.90
2022-12-19T10:41:24.809Z,99.90
2022-12-19T10:43:58.027Z,99.60
2022-12-19T10:46:46.158Z,99.40
2022-12-19T10:49:19.119Z,99.10
2022-12-19T10:52:04.626Z,98.90
2022-12-19T10:54:38.012Z,98.80
2022-12-19T10:57:28.993Z,99.00
2022-12-19T11:00:15.486Z,98.30
2022-12-19T11:02:48.720Z,98.40
2022-12-19T11:05:31.903Z,98.60
2022-12-19T11:08:04.543Z,98.90
2022-12-19T11:13:13.034Z,98.80
2022-12-19T11:19:24.093Z,99.00
2022-12-19T11:21:12.817Z,99.00
2022-12-19T11:29:18.727Z,98.80
2022-12-19T11:29:31.806Z,99.10
2022-12-19T11:29:33.381Z,99.00
2022-12-19T11:30:38.168Z,99.10
2022-12-19T11:34:23.746Z,99.10
2022-12-19T11:37:21.279Z,99.30
2022-12-19T11:40:02.668Z,99.30
2022-12-19T11:43:25.476Z,99.40
2022-12-19T11:46:08.339Z,99.30
2022-12-19T11:48:48.415Z,99.40
2022-12-19T11:51:49.431Z,99.20
2022-12-19T11:54:26.582Z,98.90
2022-12-19T11:56:53.561Z,99.00
2022-12-19T11:59:27.512Z,98.80
2022-12-19T12:02:28.359Z,98.60
2022-12-19T12:05:19.907Z,98.10
2022-12-19T12:09:27.843Z,99.00
2022-12-19T12:18:40.769Z,97.80
2022-12-19T12:25:01.411Z,97.70
2022-12-19T12:31:00.703Z,97.90
2022-12-19T12:31:01.414Z,97.80
2022-12-19T12:31:52.924Z,98.30
2022-12-19T12:32:00.980Z,98.30
2022-12-19T12:32:03.188Z,99.20
2022-12-19T12:35:50.922Z,98.40
2022-12-19T12:39:47.238Z,98.50
2022-12-19T12:43:34.307Z,98.80
2022-12-19T12:46:04.776Z,98.80
2022-12-19T12:48:50.477Z,99.00
2022-12-19T12:51:18.630Z,98.80
2022-12-19T12:53:48.026Z,99.80
2022-12-19T12:56:17.791Z,98.00
2022-12-19T12:58:48.504Z,98.20
2022-12-19T13:01:29.442Z,97.80
2022-12-19T13:04:07.608Z,97.50
2022-12-19T13:07:01.451Z,97.20
2022-12-19T13:09:31.673Z,96.80
2022-12-19T13:12:37.231Z,95.70
2022-12-19T13:15:26.971Z,96.10
2022-12-19T13:17:56.500Z,95.50
2022-12-19T13:20:29.381Z,95.80
2022-12-19T13:23:25.778Z,95.70
2022-12-19T13:25:54.787Z,95.50
2022-12-19T13:28:21.875Z,95.60
2022-12-19T13:31:22.850Z,95.80
2022-12-19T13:33:54.819Z,95.40
2022-12-19T13:39:49.773Z,95.80
2022-12-19T13:39:54.778Z,95.70
2022-12-19T13:42:55.507Z,95.90
2022-12-19T13:45:41.951Z,95.60
2022-12-19T13:48:19.204Z,95.30
2022-12-19T13:50:49.530Z,95.40
2022-12-19T13:53:30.013Z,95.50
2022-12-19T13:56:16.379Z,95.60
2022-12-19T13:58:58.399Z,96.00
2022-12-19T14:01:35.991Z,96.20
2022-12-19T14:04:27.688Z,96.50
2022-12-19T14:07:37.034Z,96.90
2022-12-19T14:11:34.255Z,97.00
2022-12-19T14:13:59.389Z,97.60
2022-12-19T14:16:43.602Z,98.10
2022-12-19T14:19:25.596Z,98.60
2022-12-19T14:22:04.209Z,98.80
2022-12-19T14:24:40.259Z,99.00
2022-12-19T14:28:26.362Z,99.30
2022-12-19T14:30:27.534Z,99.60
2022-12-19T14:33:46.944Z,99.60
2022-12-19T14:36:07.678Z,99.90
2022-12-19T14:39:27.356Z,99.90
2022-12-19T14:42:07.497Z,99.90
2022-12-19T14:54:02.055Z,99.90
2022-12-19T14:54:04.327Z,99.90
2022-12-19T14:54:15.012Z,99.90
2022-12-19T14:54:41.910Z,99.90
2022-12-19T14:59:06.373Z,99.90
2022-12-19T15:01:35.307Z,99.90
2022-12-19T15:04:53.510Z,99.90
2022-12-19T15:07:21.343Z,99.90
2022-12-19T15:10:59.577Z,99.90
2022-12-19T15:14:52.739Z,99.90
2022-12-19T15:16:06.404Z,99.90
2022-12-19T15:18:33.396Z,99.90
2022-12-19T15:21:08.496Z,99.90
2022-12-19T15:23:35.546Z,99.90
2022-12-19T15:26:07.355Z,99.90
2022-12-19T15:28:43.102Z,99.90
2022-12-19T15:31:41.449Z,99.90
2022-12-19T15:34:37.248Z,99.90
2022-12-19T15:37:10.689Z,99.90
2022-12-19T15:39:38.073Z,99.90
2022-12-19T15:42:06.735Z,99.90
2022-12-19T15:44:40.208Z,99.90
2022-12-19T15:47:19.679Z,99.90
2022-12-19T15:49:47.253Z,99.90
2022-12-19T15:52:20.041Z,99.90
2022-12-19T15:54:49.400Z,99.90
2022-12-19T15:57:39.955Z,99.90
2022-12-19T16:00:19.606Z,99.90
2022-12-19T16:03:22.848Z,99.90
2022-12-19T16:08:02.069Z,99.90
2022-12-19T16:15:31.892Z,99.90
2022-12-19T16:18:02.943Z,99.90
2022-12-19T16:20:39.572Z,99.90
2022-12-19T16:23:07.960Z,99.90
2022-12-19T16:25:43.322Z,99.90
2022-12-19T16:28:25.816Z,99.90
2022-12-19T16:30:53.411Z,99.90
2022-12-19T16:33:23.978Z,99.90
2022-12-19T16:36:04.186Z,99.90
2022-12-19T16:38:32.309Z,99.90
2022-12-19T16:40:59.595Z,99.90
2022-12-19T16:43:37.591Z,99.90
2022-12-19T16:46:07.300Z,99.90
2022-12-19T16:48:37.917Z,99.90
2022-12-19T16:51:04.946Z,99.90
2022-12-19T16:56:01.294Z,99.90
2022-12-19T16:58:28.841Z,99.90
2022-12-19T17:00:56.628Z,99.90
2022-12-19T17:03:37.930Z,99.90
2022-12-19T17:06:04.910Z,99.90
2022-12-19T17:08:32.436Z,99.90
2022-12-19T17:10:59.690Z,99.90
2022-12-19T17:18:41.835Z,99.90
2022-12-19T17:21:16.855Z,99.90
2022-12-19T17:31:26.514Z,99.90
2022-12-19T17:33:56.250Z,99.90
2022-12-19T17:36:32.695Z,99.90
2022-12-19T17:39:27.838Z,99.90
2022-12-19T17:41:58.875Z,99.90
2022-12-19T17:44:25.824Z,99.90
2022-12-19T17:46:52.927Z,99.90
2022-12-19T17:49:29.773Z,99.90
2022-12-19T17:51:59.349Z,99.90
2022-12-19T17:54:27.586Z,99.90
2022-12-19T17:56:55.526Z,99.90
2022-12-19T18:04:20.773Z,99.90
2022-12-19T18:09:22.109Z,99.90
2022-12-19T18:11:50.659Z,99.90
2022-12-19T18:14:18.760Z,99.90
2022-12-19T18:16:46.476Z,99.90
2022-12-19T18:19:24.757Z,99.90
2022-12-19T18:21:51.901Z,99.90
2022-12-19T18:29:14.705Z,99.90
2022-12-19T18:31:49.771Z,99.90
2022-12-19T18:34:22.859Z,99.90
2022-12-19T18:39:24.760Z,99.90
2022-12-19T18:44:20.451Z,99.90
2022-12-19T18:46:50.643Z,99.90
2022-12-19T18:49:18.607Z,99.90
2022-12-19T18:54:22.050Z,99.90
2022-12-19T19:01:46.940Z,99.90
2022-12-19T19:04:17.839Z,99.90
2022-12-19T19:06:51.629Z,99.90
2022-12-19T19:09:21.374Z,99.90
2022-12-19T19:11:48.511Z,99.90
2022-12-19T19:14:15.491Z,99.90
2022-12-19T19:16:42.848Z,99.90
2022-12-19T19:19:14.952Z,99.90
2022-12-19T19:24:15.311Z,99.90
2022-12-19T19:26:42.403Z,99.90
2022-12-19T19:29:10.148Z,99.90
2022-12-19T19:31:41.030Z,99.90
2022-12-19T19:34:29.955Z,99.90
2022-12-19T19:37:01.461Z,99.90
2022-12-19T19:39:31.946Z,99.90
2022-12-19T19:46:53.900Z,99.90
2022-12-19T19:49:21.898Z,99.90
2022-12-19T19:51:49.153Z,99.90
2022-12-19T19:54:16.237Z,99.90
2022-12-19T19:56:43.224Z,99.90
2022-12-19T19:59:10.179Z,99.90
2022-12-19T20:04:05.006Z,99.90
2022-12-19T20:06:32.161Z,99.90
2022-12-19T20:08:59.105Z,99.90
2022-12-19T20:11:26.533Z,99.90
2022-12-19T20:16:21.030Z,99.90
2022-12-19T20:18:51.705Z,99.90
2022-12-19T20:21:20.129Z,99.90
2022-12-19T20:23:47.700Z,99.90
2022-12-19T20:26:16.882Z,99.90
2022-12-19T20:28:49.472Z,99.90
2022-12-19T20:31:22.556Z,99.90
2022-12-19T20:33:50.698Z,99.90
2022-12-19T20:36:18.154Z,99.90
2022-12-19T20:38:46.242Z,99.90
2022-12-19T20:41:13.461Z,99.90
2022-12-19T20:43:41.348Z,99.90
2022-12-19T20:46:15.813Z,99.90
2022-12-19T20:48:43.388Z,99.90
2022-12-19T20:51:11.835Z,99.90
2022-12-19T20:53:39.786Z,99.90
2022-12-19T20:56:09.230Z,99.90
2022-12-19T20:58:38.065Z,99.90
2022-12-19T21:01:09.243Z,99.90
2022-12-19T21:03:37.980Z,99.90
2022-12-19T21:06:06.749Z,99.90
2022-12-19T21:08:34.414Z,99.90
2022-12-19T21:11:03.987Z,99.90
2022-12-19T21:13:31.137Z,99.90
2022-12-19T21:16:02.948Z,99.90
2022-12-19T21:18:30.655Z,99.90
2022-12-19T21:20:59.331Z,99.90
2022-12-19T21:23:27.436Z,99.90
2022-12-19T21:26:01.301Z,99.90
2022-12-19T21:28:29.355Z,99.90
2022-12-19T21:31:14.991Z,99.90
2022-12-19T21:33:42.361Z,99.90
2022-12-19T21:36:21.702Z,99.90
2022-12-19T21:38:51.416Z,99.90
2022-12-19T21:41:19.318Z,99.90
2022-12-19T21:43:55.035Z,99.90
2022-12-19T21:46:25.535Z,99.90
2022-12-19T21:48:54.886Z,99.90
2022-12-19T21:51:26.566Z,99.90
2022-12-19T21:53:56.990Z,99.90
2022-12-19T21:56:26.861Z,99.90
2022-12-19T21:59:15.507Z,99.90
2022-12-19T22:01:43.610Z,99.90
2022-12-19T22:04:17.924Z,99.90
2022-12-19T22:06:44.948Z,99.90
2022-12-19T22:09:15.710Z,99.90
2022-12-19T22:11:42.984Z,99.90
2022-12-19T22:14:13.385Z,99.90
2022-12-19T22:16:40.468Z,99.90
2022-12-19T22:19:07.952Z,99.90
2022-12-19T22:21:34.979Z,99.90
2022-12-19T22:24:04.768Z,99.90
2022-12-19T22:26:32.307Z,99.90
2022-12-19T22:31:30.662Z,99.90
2022-12-19T22:34:01.069Z,99.90
2022-12-19T22:36:29.867Z,99.90
2022-12-19T22:38:59.075Z,99.90
2022-12-19T22:41:27.662Z,99.90
2022-12-19T22:43:55.730Z,99.90
2022-12-19T22:46:37.533Z,99.90
2022-12-19T22:49:07.183Z,99.90
2022-12-19T22:51:35.863Z,99.90
2022-12-19T22:54:04.495Z,99.90
2022-12-19T22:56:33.803Z,99.90
2022-12-19T22:59:05.829Z,99.90
2022-12-19T23:01:40.783Z,99.90
2022-12-19T23:04:13.937Z,99.90
2022-12-19T23:09:12.368Z,99.90
2022-12-19T23:11:41.363Z,99.90
2022-12-19T23:14:12.552Z,99.90
2022-12-19T23:16:39.433Z,99.90
2022-12-19T23:19:07.186Z,99.90
2022-12-19T23:21:34.156Z,99.90
2022-12-19T23:24:01.355Z,99.90
2022-12-19T23:26:32.123Z,99.90
2022-12-19T23:29:09.842Z,99.90
2022-12-19T23:31:41.278Z,99.90
2022-12-19T23:34:08.678Z,99.90
2022-12-19T23:37:09.520Z,99.90
2022-12-19T23:39:22.515Z,99.90
2022-12-19T23:41:49.496Z,99.90
2022-12-19T23:44:16.643Z,99.90
2022-12-19T23:46:43.667Z,99.90
2022-12-19T23:49:10.591Z,99.90
2022-12-19T23:51:37.801Z,99.90
2022-12-19T23:54:04.768Z,99.90
2022-12-19T23:56:32.678Z,99.90
2022-12-19T23:59:00.053Z,99.90
